Terminal Aerodrome Forecast
Issued by NWS

Home | Current Version | Previous Version | Text Only | Print | Product List | Glossary On
Versions: 1 2 3 4 5 6 7 8 9 10 11 12 13 14 15 16 17 18 19 20 21 22
000
FTUS43 KPAH 230609 AAA
TAFOWB
TAF AMD
KOWB 230609Z 2306/2406 VRB04KT 6SM -SHRA BR SCT006 OVC060
      TEMPO 2306/2309 2SM SHRA BR OVC006
     FM230900 16008KT 4SM -SHRA BR OVC008
      TEMPO 2309/2313 2SM TSRA BKN005CB
     FM231600 23007KT P6SM -SHRA OVC008
     FM232000 29006KT P6SM VCSH OVC015
     FM240000 VRB04KT P6SM -SHRA OVC010=

USA.gov is the U.S. government's official web portal to all federal, state and local government web resources and services.